createdAt,value
2022-08-19T00:02:17.513Z,24.05
2022-08-19T00:05:04.573Z,24.03
2022-08-19T00:07:50.902Z,24.04
2022-08-19T00:10:36.381Z,24.05
2022-08-19T00:13:21.659Z,24.03
2022-08-19T00:16:08.150Z,24.03
2022-08-19T00:18:54.552Z,24.02
2022-08-19T00:21:40.580Z,24.03
2022-08-19T00:24:26.563Z,24.03
2022-08-19T00:27:26.221Z,24.01
2022-08-19T00:30:13.049Z,24.02
2022-08-19T00:32:59.677Z,24.03
2022-08-19T00:35:44.983Z,24.00
2022-08-19T00:38:37.480Z,23.99
2022-08-19T00:41:25.317Z,24.01
2022-08-19T00:44:14.755Z,24.01
2022-08-19T00:47:01.075Z,24.00
2022-08-19T00:49:54.569Z,23.98
2022-08-19T00:52:46.452Z,23.97
2022-08-19T00:55:33.578Z,23.97
2022-08-19T00:58:22.296Z,23.97
2022-08-19T01:01:08.722Z,23.96
2022-08-19T01:03:56.808Z,23.96
2022-08-19T01:06:43.732Z,23.96
2022-08-19T01:09:31.940Z,23.95
2022-08-19T01:12:18.633Z,23.97
2022-08-19T01:15:05.169Z,23.96
2022-08-19T01:17:52.560Z,23.95
2022-08-19T01:20:38.486Z,23.95
2022-08-19T01:23:43.372Z,23.94
2022-08-19T01:26:29.458Z,23.95
2022-08-19T01:29:16.854Z,23.94
2022-08-19T01:32:02.595Z,23.94
2022-08-19T01:34:48.221Z,23.93
2022-08-19T01:37:52.151Z,23.94
2022-08-19T01:40:41.362Z,23.93
2022-08-19T01:43:27.543Z,23.93
2022-08-19T01:46:12.891Z,23.93
2022-08-19T01:48:58.128Z,23.92
2022-08-19T01:51:43.435Z,23.93
2022-08-19T01:54:29.388Z,23.92
2022-08-19T01:57:15.758Z,23.92
2022-08-19T02:00:01.660Z,23.91
2022-08-19T02:02:56.683Z,23.92
2022-08-19T02:05:43.075Z,23.91
2022-08-19T02:08:28.569Z,23.92
2022-08-19T02:11:32.657Z,23.92
2022-08-19T02:14:17.770Z,23.93
2022-08-19T02:17:04.212Z,23.91
2022-08-19T02:19:49.972Z,23.91
2022-08-19T02:22:36.290Z,23.91
2022-08-19T02:25:21.915Z,23.93
2022-08-19T02:28:08.256Z,23.91
2022-08-19T02:30:53.792Z,23.92
2022-08-19T02:33:40.087Z,23.91
2022-08-19T02:36:26.518Z,23.92
2022-08-19T02:39:11.967Z,23.91
2022-08-19T02:41:57.289Z,23.90
2022-08-19T02:44:42.407Z,23.91
2022-08-19T02:47:27.719Z,23.94
2022-08-19T02:50:13.811Z,23.94
2022-08-19T02:52:59.454Z,23.93
2022-08-19T02:55:47.407Z,23.93
2022-08-19T02:58:32.857Z,23.93
2022-08-19T03:01:28.027Z,23.95
2022-08-19T03:04:16.553Z,23.94
2022-08-19T03:07:10.840Z,23.95
2022-08-19T03:09:56.759Z,23.93
2022-08-19T03:12:42.207Z,23.93
2022-08-19T03:15:27.542Z,23.92
2022-08-19T03:18:13.494Z,23.94
2022-08-19T03:20:58.966Z,23.93
2022-08-19T03:23:44.659Z,23.95
2022-08-19T03:26:30.810Z,23.97
2022-08-19T03:29:22.234Z,23.98
2022-08-19T03:32:32.490Z,23.99
2022-08-19T03:35:18.729Z,23.97
2022-08-19T03:38:05.721Z,23.99
2022-08-19T03:40:51.195Z,23.98
2022-08-19T03:43:41.476Z,24.02
2022-08-19T03:46:29.172Z,24.03
2022-08-19T03:49:15.120Z,24.06
2022-08-19T03:52:03.564Z,24.09
2022-08-19T03:54:49.077Z,24.11
2022-08-19T03:57:35.548Z,24.15
2022-08-19T04:00:21.242Z,24.18
2022-08-19T04:03:06.571Z,24.19
2022-08-19T04:05:52.042Z,24.23
2022-08-19T04:08:37.665Z,24.27
2022-08-19T04:11:43.906Z,24.30
2022-08-19T04:14:31.516Z,24.33
2022-08-19T04:17:17.374Z,24.36
2022-08-19T04:20:07.102Z,24.35
2022-08-19T04:22:52.500Z,24.38
2022-08-19T04:25:43.496Z,24.38
2022-08-19T04:28:29.885Z,24.38
2022-08-19T04:31:30.986Z,24.39
2022-08-19T04:34:18.788Z,24.40
2022-08-19T04:37:12.752Z,24.40
2022-08-19T04:40:16.798Z,24.42
2022-08-19T04:43:02.409Z,24.43
2022-08-19T04:45:47.975Z,24.44
2022-08-19T04:48:35.242Z,24.46
2022-08-19T04:51:21.635Z,24.45
2022-08-19T04:54:06.911Z,24.46
2022-08-19T04:56:55.423Z,24.48
2022-08-19T04:59:40.684Z,24.47
2022-08-19T05:02:26.395Z,24.46
2022-08-19T05:05:12.082Z,24.46
2022-08-19T05:07:57.780Z,24.50
2022-08-19T05:10:43.355Z,24.49
2022-08-19T05:13:28.661Z,24.50
2022-08-19T05:16:14.507Z,24.48
2022-08-19T05:19:18.586Z,24.50
2022-08-19T05:22:22.418Z,24.51
2022-08-19T05:25:13.020Z,24.52
2022-08-19T05:27:59.379Z,24.51
2022-08-19T05:30:47.471Z,24.49
2022-08-19T05:33:33.469Z,24.50
2022-08-19T05:36:20.978Z,24.50
2022-08-19T05:39:12.981Z,24.48
2022-08-19T05:42:01.434Z,24.51
2022-08-19T05:44:48.087Z,24.50
2022-08-19T05:47:33.564Z,24.51
2022-08-19T05:50:19.103Z,24.53
2022-08-19T05:53:05.167Z,24.50
2022-08-19T05:55:50.851Z,24.48
2022-08-19T05:58:37.424Z,24.52
2022-08-19T06:01:22.667Z,24.50
2022-08-19T06:04:08.384Z,24.48
2022-08-19T06:06:55.095Z,24.48
2022-08-19T06:09:43.677Z,24.48
2022-08-19T06:12:41.476Z,24.47
2022-08-19T06:15:29.108Z,24.47
2022-08-19T06:18:15.382Z,24.49
2022-08-19T06:21:05.296Z,24.48
2022-08-19T06:23:52.623Z,24.50
2022-08-19T06:26:41.840Z,24.51
2022-08-19T06:29:28.923Z,24.52
2022-08-19T06:32:17.344Z,24.54
2022-08-19T06:35:03.120Z,24.52
2022-08-19T06:37:48.224Z,24.55
2022-08-19T06:40:33.736Z,24.55
2022-08-19T06:43:18.769Z,24.55
2022-08-19T06:46:04.819Z,24.55
2022-08-19T06:48:54.433Z,24.55
2022-08-19T06:51:42.428Z,24.57
2022-08-19T06:54:30.887Z,24.57
2022-08-19T06:57:16.966Z,24.58
2022-08-19T07:00:03.624Z,24.56
2022-08-19T07:02:53.395Z,24.57
2022-08-19T07:05:45.698Z,24.58
2022-08-19T07:08:31.984Z,24.57
2022-08-19T07:11:19.997Z,24.58
2022-08-19T07:14:07.624Z,24.57
2022-08-19T07:17:08.122Z,24.59
2022-08-19T07:19:54.517Z,24.60
2022-08-19T07:22:41.014Z,24.60
2022-08-19T07:25:32.250Z,24.60
2022-08-19T07:28:24.765Z,24.61
2022-08-19T07:31:16.984Z,24.62
2022-08-19T07:34:11.570Z,24.64
2022-08-19T07:36:57.645Z,24.66
2022-08-19T07:39:43.044Z,24.65
2022-08-19T07:42:30.594Z,24.65
2022-08-19T07:45:17.014Z,24.65
2022-08-19T07:48:02.803Z,24.65
2022-08-19T07:50:49.414Z,24.66
2022-08-19T07:53:39.564Z,24.69
2022-08-19T07:56:25.396Z,24.69
2022-08-19T07:59:11.179Z,24.69
2022-08-19T08:01:58.059Z,24.67
2022-08-19T08:05:02.230Z,24.68
2022-08-19T08:08:07.153Z,24.67
2022-08-19T08:10:54.634Z,24.70
2022-08-19T08:13:42.741Z,24.69
2022-08-19T08:16:32.164Z,24.69
2022-08-19T08:19:25.923Z,24.68
2022-08-19T08:22:32.991Z,24.67
2022-08-19T08:25:23.716Z,24.67
2022-08-19T08:28:11.301Z,24.67
2022-08-19T08:31:02.637Z,24.68
2022-08-19T08:33:55.111Z,24.71
2022-08-19T08:36:43.610Z,24.70
2022-08-19T08:39:29.711Z,24.69
2022-08-19T08:42:28.487Z,24.72
2022-08-19T08:45:18.065Z,24.70
2022-08-19T08:48:22.351Z,24.75
2022-08-19T08:51:15.206Z,24.72
2022-08-19T08:54:09.945Z,24.68
2022-08-19T08:56:56.034Z,24.68
2022-08-19T08:59:44.338Z,24.67
2022-08-19T09:02:29.983Z,24.71
2022-08-19T09:05:16.278Z,24.72
2022-08-19T09:08:08.014Z,24.74
2022-08-19T09:10:56.268Z,24.75
2022-08-19T09:13:58.176Z,24.78
2022-08-19T09:16:43.381Z,24.77
2022-08-19T09:19:29.500Z,24.73
2022-08-19T09:22:14.618Z,24.71
2022-08-19T09:25:15.878Z,24.70
2022-08-19T09:28:05.634Z,24.67
2022-08-19T09:30:52.990Z,24.69
2022-08-19T09:33:39.217Z,24.67
2022-08-19T09:36:34.702Z,24.63
2022-08-19T09:39:20.537Z,24.64
2022-08-19T09:42:16.435Z,24.62
2022-08-19T09:45:17.228Z,24.61
2022-08-19T09:48:03.792Z,24.58
2022-08-19T09:50:51.957Z,24.54
2022-08-19T09:53:38.945Z,24.54
2022-08-19T09:56:25.626Z,24.55
2022-08-19T09:59:12.999Z,24.53
2022-08-19T10:02:03.868Z,24.50
2022-08-19T10:05:14.670Z,24.49
2022-08-19T10:08:13.207Z,24.47
2022-08-19T10:10:59.970Z,24.46
2022-08-19T10:14:06.823Z,24.44
2022-08-19T10:16:52.825Z,24.42
2022-08-19T10:19:39.049Z,24.42
2022-08-19T10:22:25.761Z,24.38
2022-08-19T10:25:12.142Z,24.38
2022-08-19T10:27:57.619Z,24.36
2022-08-19T10:30:43.085Z,24.37
2022-08-19T10:33:38.857Z,24.33
2022-08-19T10:36:37.031Z,24.36
2022-08-19T10:39:43.095Z,24.35
2022-08-19T10:42:29.190Z,24.37
2022-08-19T10:45:14.481Z,24.38
2022-08-19T10:48:00.667Z,24.35
2022-08-19T10:51:04.531Z,24.35
2022-08-19T10:53:50.721Z,24.36
2022-08-19T10:56:52.113Z,24.35
2022-08-19T10:59:37.925Z,24.32
2022-08-19T11:02:23.485Z,24.32
2022-08-19T11:05:12.784Z,24.31
2022-08-19T11:07:59.435Z,24.30
2022-08-19T11:10:50.318Z,24.27
2022-08-19T11:13:39.835Z,24.30
2022-08-19T11:16:27.658Z,24.28
2022-08-19T11:19:15.048Z,24.26
2022-08-19T11:22:04.777Z,24.23
2022-08-19T11:24:50.248Z,24.21
2022-08-19T11:27:40.337Z,24.21
2022-08-19T11:30:25.844Z,24.22
2022-08-19T11:33:11.880Z,24.19
2022-08-19T11:36:02.157Z,24.19
2022-08-19T11:38:50.896Z,24.25
2022-08-19T11:41:37.262Z,24.24
2022-08-19T11:44:23.110Z,24.25
2022-08-19T11:47:08.778Z,24.25
2022-08-19T11:49:54.838Z,24.26
2022-08-19T11:52:40.247Z,24.28
2022-08-19T11:55:25.591Z,24.29
2022-08-19T11:58:18.971Z,24.32
2022-08-19T12:01:10.430Z,24.34
2022-08-19T12:03:57.666Z,24.37
2022-08-19T12:06:43.288Z,24.39
2022-08-19T12:09:30.965Z,24.43
2022-08-19T12:12:16.878Z,24.40
2022-08-19T12:15:03.099Z,24.41
2022-08-19T12:17:48.663Z,24.40
2022-08-19T12:20:41.115Z,24.43
2022-08-19T12:23:26.264Z,24.42
2022-08-19T12:26:12.719Z,24.44
2022-08-19T12:29:00.454Z,24.50
2022-08-19T12:31:48.592Z,24.49
2022-08-19T12:34:35.036Z,24.46
2022-08-19T12:37:20.599Z,24.48
2022-08-19T12:40:07.219Z,24.48
2022-08-19T12:42:52.858Z,24.48
2022-08-19T12:45:38.727Z,24.50
2022-08-19T12:48:33.799Z,24.53
2022-08-19T12:51:22.963Z,24.51
2022-08-19T12:54:09.178Z,24.51
2022-08-19T12:56:55.052Z,24.50
2022-08-19T12:59:40.658Z,24.50
2022-08-19T13:02:26.098Z,24.54
2022-08-19T13:05:21.155Z,24.52
2022-08-19T13:08:06.906Z,24.52
2022-08-19T13:10:52.195Z,24.54
2022-08-19T13:13:37.667Z,24.58
2022-08-19T13:16:27.303Z,24.61
2022-08-19T13:19:14.625Z,24.62
2022-08-19T13:22:01.175Z,24.58
2022-08-19T13:24:47.545Z,24.54
2022-08-19T13:27:33.776Z,24.54
2022-08-19T13:30:39.191Z,24.54
2022-08-19T13:33:26.623Z,24.56
2022-08-19T13:36:12.066Z,24.58
2022-08-19T13:38:58.617Z,24.57
2022-08-19T13:41:50.907Z,24.55
2022-08-19T13:44:36.350Z,24.56
2022-08-19T13:47:21.897Z,24.57
2022-08-19T13:50:08.146Z,24.55
2022-08-19T13:52:55.200Z,24.56
2022-08-19T13:55:42.901Z,24.58
2022-08-19T13:58:28.498Z,24.57
2022-08-19T14:01:19.491Z,24.57
2022-08-19T14:04:10.011Z,24.58
2022-08-19T14:06:56.039Z,24.60
2022-08-19T14:09:42.121Z,24.63
2022-08-19T14:12:29.256Z,24.64
2022-08-19T14:15:15.641Z,24.68
2022-08-19T14:18:00.947Z,24.69
2022-08-19T14:20:46.183Z,24.71
2022-08-19T14:23:32.452Z,24.68
2022-08-19T14:26:19.662Z,24.73
2022-08-19T14:29:04.777Z,24.72
2022-08-19T14:31:50.097Z,24.75
2022-08-19T14:34:38.361Z,24.74
2022-08-19T14:37:23.748Z,24.75
2022-08-19T14:40:12.497Z,24.75
2022-08-19T14:43:05.231Z,24.74
2022-08-19T14:45:51.018Z,24.75
2022-08-19T14:48:41.445Z,24.75
2022-08-19T14:51:27.872Z,24.76
2022-08-19T14:54:14.062Z,24.76
2022-08-19T14:56:59.769Z,24.72
2022-08-19T14:59:45.344Z,24.69
2022-08-19T15:02:34.465Z,24.70
2022-08-19T15:05:20.387Z,24.71
2022-08-19T15:08:06.109Z,24.72
2022-08-19T15:10:52.890Z,24.74
2022-08-19T15:13:40.544Z,24.73
2022-08-19T15:16:27.178Z,24.75
2022-08-19T15:19:12.904Z,24.75
2022-08-19T15:21:58.516Z,24.72
2022-08-19T15:24:47.941Z,24.71
2022-08-19T15:27:34.049Z,24.74
2022-08-19T15:30:28.004Z,24.72
2022-08-19T15:33:15.424Z,24.72
2022-08-19T15:36:00.744Z,24.69
2022-08-19T15:38:47.538Z,24.68
2022-08-19T15:41:34.504Z,24.66
2022-08-19T15:44:22.759Z,24.63
2022-08-19T15:47:08.240Z,24.61
2022-08-19T15:49:55.761Z,24.56
2022-08-19T15:52:53.642Z,24.56
2022-08-19T15:55:45.077Z,24.59
2022-08-19T15:58:49.143Z,24.54
2022-08-19T16:01:40.503Z,24.56
2022-08-19T16:04:45.055Z,24.53
2022-08-19T16:07:30.407Z,24.61
2022-08-19T16:10:27.033Z,24.64
2022-08-19T16:13:13.938Z,24.68
2022-08-19T16:15:59.413Z,24.71
2022-08-19T16:18:47.274Z,24.74
2022-08-19T16:21:34.386Z,24.75
2022-08-19T16:24:23.584Z,24.78
2022-08-19T16:27:08.923Z,24.82
2022-08-19T16:29:54.613Z,24.82
2022-08-19T16:32:43.884Z,24.85
2022-08-19T16:35:29.123Z,24.87
2022-08-19T16:38:14.562Z,24.89
2022-08-19T16:41:01.509Z,24.88
2022-08-19T16:43:49.306Z,24.88
2022-08-19T16:46:34.869Z,24.85
2022-08-19T16:49:52.194Z,24.88
2022-08-19T16:52:26.978Z,24.84
2022-08-19T16:55:12.178Z,24.79
2022-08-19T16:57:57.573Z,24.79
2022-08-19T17:00:42.857Z,24.78
2022-08-19T17:03:36.289Z,24.76
2022-08-19T17:06:26.424Z,24.73
2022-08-19T17:09:12.453Z,24.76
2022-08-19T17:11:58.242Z,24.81
2022-08-19T17:14:45.998Z,24.85
2022-08-19T17:17:31.950Z,24.86
2022-08-19T17:20:17.525Z,24.82
2022-08-19T17:23:03.531Z,24.86
2022-08-19T17:25:51.198Z,24.86
2022-08-19T17:28:36.501Z,24.86
2022-08-19T17:31:24.524Z,24.84
2022-08-19T17:34:10.083Z,24.83
2022-08-19T17:36:57.159Z,24.81
2022-08-19T17:39:42.313Z,24.83
2022-08-19T17:42:27.977Z,24.77
2022-08-19T17:45:14.857Z,24.78
2022-08-19T17:48:01.183Z,24.71
2022-08-19T17:50:46.767Z,24.73
2022-08-19T17:53:33.310Z,24.76
2022-08-19T17:56:21.397Z,24.73
2022-08-19T17:59:07.875Z,24.72
2022-08-19T18:01:58.060Z,24.73
2022-08-19T18:04:46.862Z,24.72
2022-08-19T18:07:34.402Z,24.69
2022-08-19T18:10:21.378Z,24.73
2022-08-19T18:13:17.171Z,24.72
2022-08-19T18:16:07.089Z,24.75
2022-08-19T18:18:54.538Z,24.77
2022-08-19T18:21:40.929Z,24.76
2022-08-19T18:24:26.446Z,24.73
2022-08-19T18:27:11.784Z,24.76
2022-08-19T18:29:59.178Z,24.75
2022-08-19T18:32:46.913Z,24.76
2022-08-19T18:35:33.143Z,24.76
2022-08-19T18:38:39.240Z,24.79
2022-08-19T18:41:43.361Z,24.81
2022-08-19T18:44:47.296Z,24.78
2022-08-19T18:47:51.419Z,24.73
2022-08-19T18:50:41.112Z,24.80
2022-08-19T18:53:29.728Z,24.86
2022-08-19T18:56:19.606Z,24.86
2022-08-19T18:59:05.187Z,24.81
2022-08-19T19:01:56.169Z,24.80
2022-08-19T19:04:41.700Z,24.83
2022-08-19T19:07:29.676Z,24.83
2022-08-19T19:10:15.392Z,24.82
2022-08-19T19:13:01.396Z,24.84
2022-08-19T19:15:47.130Z,24.85
2022-08-19T19:18:34.800Z,24.83
2022-08-19T19:21:23.099Z,24.79
2022-08-19T19:24:09.042Z,24.75
2022-08-19T19:26:54.787Z,24.79
2022-08-19T19:29:40.992Z,24.78
2022-08-19T19:32:30.887Z,24.76
2022-08-19T19:35:16.693Z,24.79
2022-08-19T19:38:02.629Z,24.78
2022-08-19T19:40:48.173Z,24.80
2022-08-19T19:43:38.868Z,24.80
2022-08-19T19:46:27.808Z,24.75
2022-08-19T19:49:14.023Z,24.71
2022-08-19T19:51:59.679Z,24.73
2022-08-19T19:54:47.890Z,24.68
2022-08-19T19:57:33.495Z,24.64
2022-08-19T20:00:19.523Z,24.64
2022-08-19T20:03:05.640Z,24.65
2022-08-19T20:05:52.485Z,24.64
2022-08-19T20:08:59.145Z,24.62
2022-08-19T20:11:53.973Z,24.62
2022-08-19T20:14:40.033Z,24.61
2022-08-19T20:17:25.472Z,24.58
2022-08-19T20:20:14.007Z,24.57
2022-08-19T20:22:59.590Z,24.57
2022-08-19T20:25:45.068Z,24.56
2022-08-19T20:28:30.397Z,24.51
2022-08-19T20:31:16.811Z,24.48
2022-08-19T20:34:02.597Z,24.50
2022-08-19T20:36:47.852Z,24.45
2022-08-19T20:39:33.235Z,24.44
2022-08-19T20:42:18.601Z,24.44
2022-08-19T20:45:07.388Z,24.43
2022-08-19T20:48:05.620Z,24.41
2022-08-19T20:50:50.677Z,24.41
2022-08-19T20:53:36.741Z,24.39
2022-08-19T20:56:22.285Z,24.37
2022-08-19T20:59:10.517Z,24.37
2022-08-19T21:01:56.442Z,24.36
2022-08-19T21:04:44.328Z,24.37
2022-08-19T21:07:39.267Z,24.34
2022-08-19T21:10:26.183Z,24.33
2022-08-19T21:13:11.818Z,24.32
2022-08-19T21:15:57.289Z,24.32
2022-08-19T21:18:42.563Z,24.30
2022-08-19T21:21:27.925Z,24.30
2022-08-19T21:24:13.094Z,24.31
2022-08-19T21:26:58.983Z,24.31
2022-08-19T21:29:44.296Z,24.30
2022-08-19T21:32:29.579Z,24.27
2022-08-19T21:35:14.907Z,24.29
2022-08-19T21:38:00.060Z,24.29
2022-08-19T21:40:45.565Z,24.27
2022-08-19T21:43:31.411Z,24.29
2022-08-19T21:46:17.542Z,24.27
2022-08-19T21:49:03.647Z,24.27
2022-08-19T21:51:49.856Z,24.25
2022-08-19T21:54:38.046Z,24.26
2022-08-19T21:57:24.704Z,24.26
2022-08-19T22:00:21.668Z,24.25
2022-08-19T22:03:07.383Z,24.25
2022-08-19T22:05:53.440Z,24.24
2022-08-19T22:08:39.848Z,24.25
2022-08-19T22:11:26.741Z,24.24
2022-08-19T22:14:11.915Z,24.22
2022-08-19T22:16:57.558Z,24.24
2022-08-19T22:19:44.435Z,24.23
2022-08-19T22:22:32.495Z,24.21
2022-08-19T22:25:32.007Z,24.20
2022-08-19T22:28:19.131Z,24.21
2022-08-19T22:31:13.424Z,24.20
2022-08-19T22:34:00.280Z,24.19
2022-08-19T22:36:45.498Z,24.18
2022-08-19T22:39:30.674Z,24.18
2022-08-19T22:42:20.079Z,24.17
2022-08-19T22:45:08.481Z,24.17
2022-08-19T22:47:53.998Z,24.16
2022-08-19T22:50:41.720Z,24.16
2022-08-19T22:53:27.044Z,24.15
2022-08-19T22:56:15.516Z,24.15
2022-08-19T22:59:03.167Z,24.14
2022-08-19T23:01:48.905Z,24.13
2022-08-19T23:04:34.688Z,24.13
2022-08-19T23:07:23.803Z,24.11
2022-08-19T23:10:10.529Z,24.12
2022-08-19T23:12:58.752Z,24.11
2022-08-19T23:15:46.358Z,24.09
2022-08-19T23:18:33.588Z,24.07
2022-08-19T23:21:19.205Z,24.08
2022-08-19T23:24:05.227Z,24.09
2022-08-19T23:27:09.848Z,24.09
2022-08-19T23:30:13.534Z,24.07
2022-08-19T23:33:25.259Z,24.07
2022-08-19T23:36:16.214Z,24.05
2022-08-19T23:39:01.587Z,24.04
2022-08-19T23:41:47.286Z,24.06
2022-08-19T23:44:32.717Z,24.04
2022-08-19T23:47:20.845Z,24.02
2022-08-19T23:50:07.648Z,24.00
2022-08-19T23:52:56.999Z,23.99
2022-08-19T23:55:44.766Z,23.99
2022-08-19T23:58:31.893Z,23.98
